createdAt,value
2019-05-18T00:00:53.076Z,99537.17
2019-05-18T00:05:58.498Z,99533.97
2019-05-18T00:11:02.864Z,99543.86
2019-05-18T00:16:07.201Z,99539.92
2019-05-18T00:21:11.573Z,99534.36
2019-05-18T00:26:15.944Z,99531.25
2019-05-18T00:31:21.054Z,99528.83
2019-05-18T00:36:25.418Z,99531.24
2019-05-18T00:41:29.769Z,99532.84
2019-05-18T00:46:34.134Z,99533.61
2019-05-18T00:51:38.475Z,99533.38
2019-05-18T00:56:42.899Z,99541.40
2019-05-18T01:01:47.269Z,99550.85
2019-05-18T01:06:51.639Z,99548.02
2019-05-18T01:11:56.002Z,99540.37
2019-05-18T01:17:00.388Z,99540.27
2019-05-18T01:22:04.881Z,99548.14
2019-05-18T01:27:09.240Z,99546.77
2019-05-18T01:32:13.591Z,99551.69
2019-05-18T01:37:17.943Z,99543.61
2019-05-18T01:42:22.335Z,99545.31
2019-05-18T01:47:26.785Z,99542.76
2019-05-18T01:52:31.133Z,99543.52
2019-05-18T01:57:35.526Z,99546.23
2019-05-18T02:02:39.867Z,99541.63
2019-05-18T02:07:44.355Z,99547.64
2019-05-18T02:12:49.438Z,99543.45
2019-05-18T02:17:53.796Z,99542.22
2019-05-18T02:22:58.135Z,99541.00
2019-05-18T02:28:02.792Z,99536.06
2019-05-18T02:33:07.111Z,99538.13
2019-05-18T02:38:16.138Z,99530.81
2019-05-18T02:43:20.497Z,99529.52
2019-05-18T02:48:24.908Z,99531.30
2019-05-18T02:53:29.282Z,99529.75
2019-05-18T02:58:33.622Z,99526.56
2019-05-18T03:03:38.003Z,99518.41
2019-05-18T03:08:42.437Z,99514.39
2019-05-18T03:13:46.793Z,99507.86
2019-05-18T03:19:06.687Z,99505.02
2019-05-18T03:23:57.424Z,99505.09
2019-05-18T03:29:01.771Z,99510.08
2019-05-18T03:34:06.129Z,99516.48
2019-05-18T03:39:10.764Z,99517.28
2019-05-18T03:44:15.107Z,99517.69
2019-05-18T03:49:27.179Z,99515.51
2019-05-18T03:54:25.614Z,99506.97
2019-05-18T03:59:29.980Z,99512.50
2019-05-18T04:04:34.333Z,99513.29
2019-05-18T04:09:38.712Z,99511.70
2019-05-18T04:14:44.175Z,99507.16
2019-05-18T04:19:48.526Z,99506.85
2019-05-18T04:24:52.904Z,99511.21
2019-05-18T04:29:57.270Z,99514.41
2019-05-18T04:35:01.734Z,99509.28
2019-05-18T04:40:07.576Z,99501.86
2019-05-18T04:45:12.096Z,99501.01
2019-05-18T04:50:16.983Z,99492.06
2019-05-18T04:55:21.413Z,99493.50
2019-05-18T05:00:25.740Z,99491.86
2019-05-18T05:05:30.155Z,99487.87
2019-05-18T05:10:34.524Z,99483.63
2019-05-18T05:15:38.886Z,99470.77
2019-05-18T05:20:44.441Z,99475.77
2019-05-18T05:25:48.880Z,99474.55
2019-05-18T05:30:53.255Z,99475.09
2019-05-18T05:35:57.570Z,99465.55
2019-05-18T05:41:02.188Z,99466.02
2019-05-18T05:46:06.830Z,99469.53
2019-05-18T05:51:11.238Z,99467.11
2019-05-18T05:56:15.562Z,99464.56
2019-05-18T06:01:19.925Z,99465.19
2019-05-18T06:06:24.266Z,99462.17
2019-05-18T06:11:28.607Z,99458.23
2019-05-18T06:16:32.978Z,99462.47
2019-05-18T06:21:37.392Z,99457.39
2019-05-18T06:26:41.747Z,99451.59
2019-05-18T06:31:46.101Z,99455.03
2019-05-18T06:36:50.495Z,99460.66
2019-05-18T06:41:54.911Z,99459.95
2019-05-18T06:46:59.317Z,99464.11
2019-05-18T06:52:03.682Z,99465.52
2019-05-18T06:57:08.661Z,99462.50
2019-05-18T07:02:13.179Z,99474.28
2019-05-18T07:07:17.551Z,99477.81
2019-05-18T07:12:21.926Z,99473.92
2019-05-18T07:17:26.487Z,99475.52
2019-05-18T07:22:30.956Z,99480.52
2019-05-18T07:27:35.927Z,99472.87
2019-05-18T07:32:40.346Z,99485.22
2019-05-18T07:37:44.724Z,99486.73
2019-05-18T07:42:49.067Z,99470.59
2019-05-18T07:47:53.467Z,99471.21
2019-05-18T07:52:57.840Z,99468.53
2019-05-18T07:58:02.280Z,99472.11
2019-05-18T08:03:11.608Z,99472.80
2019-05-18T08:08:17.595Z,99463.46
2019-05-18T08:13:25.934Z,99468.64
2019-05-18T08:18:30.462Z,99468.58
2019-05-18T08:23:34.830Z,99473.83
2019-05-18T08:28:42.219Z,99467.95
2019-05-18T08:33:46.587Z,99467.21
2019-05-18T08:38:50.960Z,99454.92
2019-05-18T08:43:55.339Z,99458.22
2019-05-18T08:48:59.706Z,99454.13
2019-05-18T08:54:04.065Z,99465.31
2019-05-18T08:59:08.437Z,99463.84
2019-05-18T09:04:12.812Z,99462.78
2019-05-18T09:09:17.229Z,99473.55
2019-05-18T09:14:21.574Z,99474.28
2019-05-18T09:19:25.949Z,99480.14
2019-05-18T09:24:30.311Z,99483.91
2019-05-18T09:29:35.743Z,99483.78
2019-05-18T09:34:40.173Z,99475.23
2019-05-18T09:39:44.531Z,99480.77
2019-05-18T09:44:50.571Z,99478.04
2019-05-18T09:49:54.983Z,99481.27
2019-05-18T09:54:59.406Z,99466.31
2019-05-18T10:00:36.311Z,99483.06
2019-05-18T10:05:35.233Z,99478.03
2019-05-18T10:10:39.644Z,99468.00
2019-05-18T10:15:44.136Z,99471.00
2019-05-18T10:20:48.519Z,99474.97
2019-05-18T10:25:53.903Z,99478.36
2019-05-18T10:30:58.809Z,99470.27
2019-05-18T10:36:03.167Z,99473.23
2019-05-18T10:41:07.719Z,99472.44
2019-05-18T10:46:12.097Z,99460.78
2019-05-18T10:51:16.470Z,99466.52
2019-05-18T10:56:20.825Z,99457.09
2019-05-18T11:01:26.009Z,99454.91
2019-05-18T11:06:30.375Z,99457.08
2019-05-18T11:11:34.719Z,99456.91
2019-05-18T11:16:39.059Z,99450.96
2019-05-18T11:21:43.502Z,99447.73
2019-05-18T11:26:49.515Z,99447.95
2019-05-18T11:31:53.865Z,99442.93
2019-05-18T11:36:58.230Z,99442.93
2019-05-18T11:42:02.555Z,99440.58
2019-05-18T11:47:06.946Z,99427.44
2019-05-18T11:52:11.359Z,99423.38
2019-05-18T11:57:15.794Z,99417.14
2019-05-18T12:02:21.208Z,99413.44
2019-05-18T12:07:25.564Z,99408.55
2019-05-18T12:12:29.933Z,99419.66
2019-05-18T12:17:34.373Z,99415.11
2019-05-18T12:22:38.886Z,99407.06
2019-05-18T12:27:44.271Z,99399.81
2019-05-18T12:32:49.692Z,99408.70
2019-05-18T12:37:54.056Z,99407.95
2019-05-18T12:42:58.515Z,99395.88
2019-05-18T12:48:02.945Z,99391.84
2019-05-18T12:53:07.490Z,99381.96
2019-05-18T12:58:11.848Z,99365.73
2019-05-18T13:03:17.135Z,99375.63
2019-05-18T13:08:21.497Z,99382.75
2019-05-18T13:13:25.844Z,99361.55
2019-05-18T13:18:30.217Z,99356.73
2019-05-18T13:23:34.656Z,99355.69
2019-05-18T13:28:39.077Z,99365.09
2019-05-18T13:33:43.430Z,99356.16
2019-05-18T13:38:47.829Z,99354.05
2019-05-18T13:43:52.189Z,99339.80
2019-05-18T13:48:56.566Z,99336.07
2019-05-18T13:54:01.910Z,99332.86
2019-05-18T13:59:06.526Z,99329.81
2019-05-18T14:04:10.945Z,99321.81
2019-05-18T14:09:15.319Z,99317.41
2019-05-18T14:14:19.735Z,99317.52
2019-05-18T14:19:24.215Z,99314.95
2019-05-18T14:24:28.627Z,99313.34
2019-05-18T14:29:33.001Z,99310.70
2019-05-18T14:34:37.607Z,99299.49
2019-05-18T14:39:42.131Z,99302.64
2019-05-18T14:44:46.606Z,99301.08
2019-05-18T14:49:50.961Z,99298.69
2019-05-18T14:54:55.332Z,99307.42
2019-05-18T15:00:02.340Z,99300.38
2019-05-18T15:05:07.481Z,99293.84
2019-05-18T15:10:13.593Z,99290.16
2019-05-18T15:15:18.673Z,99285.33
2019-05-18T15:20:23.070Z,99279.27
2019-05-18T15:25:27.434Z,99278.93
2019-05-18T15:30:32.563Z,99286.67
2019-05-18T15:35:36.941Z,99287.31
2019-05-18T15:40:41.455Z,99280.13
2019-05-18T15:45:45.870Z,99278.44
2019-05-18T15:50:50.373Z,99285.16
2019-05-18T15:56:05.381Z,99290.98
2019-05-18T16:01:01.864Z,99276.59
2019-05-18T16:06:06.257Z,99274.43
2019-05-18T16:11:10.783Z,99275.34
2019-05-18T16:16:22.627Z,99270.03
2019-05-18T16:21:34.883Z,99277.23
2019-05-18T16:26:40.869Z,99276.70
2019-05-18T16:31:45.285Z,99277.10
2019-05-18T16:36:49.724Z,99280.66
2019-05-18T16:41:54.067Z,99280.66
2019-05-18T16:47:00.178Z,99283.15
2019-05-18T16:52:04.721Z,99283.15
2019-05-18T16:57:09.070Z,99266.00
2019-05-18T17:02:13.573Z,99269.10
2019-05-18T17:07:18.050Z,99266.47
2019-05-18T17:12:22.413Z,99263.99
2019-05-18T17:17:26.775Z,99252.28
2019-05-18T17:22:31.176Z,99259.92
2019-05-18T17:27:35.549Z,99267.63
2019-05-18T17:32:39.935Z,99267.08
2019-05-18T17:37:44.310Z,99265.04
2019-05-18T17:42:48.713Z,99274.41
2019-05-18T17:47:53.082Z,99270.46
2019-05-18T17:52:57.854Z,99268.02
2019-05-18T17:58:02.240Z,99271.25
2019-05-18T18:03:06.607Z,99272.45
2019-05-18T18:08:11.045Z,99268.05
2019-05-18T18:13:15.466Z,99269.31
2019-05-18T18:18:20.000Z,99264.79
2019-05-18T18:23:24.409Z,99269.66
2019-05-18T18:28:28.769Z,99278.78
2019-05-18T18:33:33.448Z,99277.85
2019-05-18T18:38:37.822Z,99276.30
2019-05-18T18:43:43.691Z,99272.23
2019-05-18T18:48:48.026Z,99276.59
2019-05-18T18:53:52.391Z,99283.20
2019-05-18T18:58:56.792Z,99291.61
2019-05-18T19:04:01.270Z,99290.59
2019-05-18T19:09:07.109Z,99299.55
2019-05-18T19:14:11.559Z,99302.34
2019-05-18T19:19:16.104Z,99317.25
2019-05-18T19:24:20.489Z,99327.33
2019-05-18T19:29:26.591Z,99334.55
2019-05-18T19:34:30.989Z,99338.80
2019-05-18T19:39:35.563Z,99335.13
2019-05-18T19:44:40.042Z,99339.88
2019-05-18T19:49:44.468Z,99344.31
2019-05-18T19:54:48.905Z,99342.52
2019-05-18T19:59:53.424Z,99343.07
2019-05-18T20:05:07.464Z,99345.57
2019-05-18T20:10:06.697Z,99352.92
2019-05-18T20:15:11.423Z,99349.65
2019-05-18T20:20:16.034Z,99352.73
2019-05-18T20:25:20.454Z,99352.30
2019-05-18T20:30:24.985Z,99354.53
2019-05-18T20:35:29.383Z,99353.78
2019-05-18T20:40:33.756Z,99353.84
2019-05-18T20:45:38.147Z,99353.84
2019-05-18T20:50:42.812Z,99351.30
2019-05-18T20:55:47.254Z,99354.20
2019-05-18T21:00:51.790Z,99356.12
2019-05-18T21:05:56.266Z,99349.01
2019-05-18T21:11:00.628Z,99351.11
2019-05-18T21:16:05.126Z,99351.72
2019-05-18T21:21:09.494Z,99343.83
2019-05-18T21:26:13.907Z,99342.79
2019-05-18T21:31:18.307Z,99343.14
2019-05-18T21:36:22.658Z,99341.73
2019-05-18T21:41:27.073Z,99340.45
2019-05-18T21:46:31.404Z,99340.66
2019-05-18T21:51:35.790Z,99341.00
2019-05-18T21:56:40.731Z,99335.66
2019-05-18T22:01:47.288Z,99333.00
2019-05-18T22:06:52.825Z,99331.80
2019-05-18T22:11:58.692Z,99328.71
2019-05-18T22:17:07.478Z,99324.97
2019-05-18T22:22:13.135Z,99327.41
2019-05-18T22:27:17.535Z,99334.32
2019-05-18T22:32:21.962Z,99331.92
2019-05-18T22:37:27.440Z,99333.30
2019-05-18T22:42:32.017Z,99335.27
2019-05-18T22:47:38.532Z,99329.86
2019-05-18T22:52:42.859Z,99320.04
2019-05-18T22:57:47.317Z,99312.80
2019-05-18T23:02:52.060Z,99313.17
2019-05-18T23:07:56.535Z,99303.27
2019-05-18T23:13:01.006Z,99298.85
2019-05-18T23:18:07.038Z,99302.95
2019-05-18T23:23:11.418Z,99300.31
2019-05-18T23:28:16.732Z,99299.88
2019-05-18T23:33:21.261Z,99300.61
2019-05-18T23:38:26.698Z,99297.60
2019-05-18T23:43:31.245Z,99299.70
2019-05-18T23:48:35.776Z,99293.07
2019-05-18T23:53:41.344Z,99290.98
2019-05-18T23:58:46.080Z,99289.12
